x

Diamond Shoals (41025) Wave Buoy

4:50 - Thu 23rd Feb 2017 All times are EST. -5 hours from GMT.

  • Sig Wave height 4.9ft
  • Swell Direction
  • Peak Period 6s
  • Average Period 5s
  • Wind
    16mph, 20mph gusts
  • Sea Temp 73°f
  • Aire Temp 70°f
  • Sea Pressure 1012.6mb
  • Diamond Shoals
  • Diamond Shoals

More Historic Weather Station data

Upgrade to MSW Pro to gain access to the past 30 days of data for over 8000 Wavebouys and Weather Stations around the globe.

Join Pro

Comparision Forecast

View Surf forecast
   
jue 02/23 4:50 5ft 6s 5s 16 20 mph 1012.6mb 73f 70f
3:50 4.5ft 5s 5s 13 16 mph 1012.6mb 73f 70f
2:50 4.5ft 6s 5s 18 22 mph 1012.5mb 73f 69f
1:50 4.5ft 6s 5s 13 18 mph 1013.3mb 73f 70f
12:50 4.5ft 6s 5s 13 18 mph 1014mb 74f 70f
11:50 4ft 5s 5s 18 20 mph 1014.6mb 74f 71f
10:50 3.5ft 5s 5s 13 16 mph 1015.1mb 74f 71f
9:50 3.5ft 5s 5s 13 16 mph 1015mb 74f 70f
8:50 3.5ft 10s 5s 13 16 mph 1014.7mb 74f 70f
7:50 3.5ft 8s 5s 13 18 mph 1014.2mb 74f 70f
6:50 3.5ft 10s 5s 9 11 mph 1014mb 74f 69f
5:50 3.5ft 9s 5s 13 18 mph 1013.6mb 74f 69f
mié 02/22 5:50 2.5ft 8s 5s 9 13 mph 1014.8mb 75f 67f
4:50 3.5ft 9s 6s 13 16 mph 1014.6mb 75f 68f
3:50 3ft 10s 6s 13 16 mph 1014.6mb 75f 68f
2:50 3ft 9s 6s 13 18 mph 1014.7mb 75f 68f
1:50 3ft 10s 6s 11 13 mph 1015.1mb 75f 67f
12:50 3.5ft 8s 6s 11 13 mph 1015.8mb 75f 67f
11:50 3.5ft 10s 6s 11 13 mph 1016.7mb 74f 67f
10:50 3.5ft 10s 6s 9 13 mph 1017.4mb 74f 67f
9:50 3.5ft 9s 6s 9 13 mph 1017.8mb 74f 67f
8:50 3ft 9s 6s 9 13 mph 1018.2mb 74f 66f
7:50 3.5ft 8s 7s 9 11 mph 1018.2mb 74f 66f
5:50 4ft 8s 7s 9 13 mph 1018.1mb 74f 64f
4:50 3.5ft 9s 7s 7 9 mph 1018.2mb 74f 64f
3:50 3.5ft 8s 6s 7 11 mph 1018.3mb 74f 64f
2:50 3.5ft 8s 6s 7 9 mph 1018.6mb 74f 63f
1:50 3.5ft 10s 6s 9 11 mph 1019.2mb 74f 63f
12:50 3.5ft 10s 6s 9 13 mph 1019.7mb 74f 63f
mar 02/21 11:50 4.5ft 10s 7s 7 9 mph 1020.6mb 74f 63f
10:50 4.5ft 9s 6s 9 13 mph 1021.2mb 74f 62f
9:50 3.5ft 10s 5s 13 18 mph 1021.3mb 74f 63f
8:50 4ft 7s 6s 13 18 mph 1021.1mb 74f 63f
7:50 4ft 9s 6s 11 16 mph 1021.5mb 75f 63f
6:50 4ft 8s 6s 11 16 mph 1021.8mb 75f 63f
5:50 4.5ft 9s 6s 11 13 mph 1021.7mb 75f 63f
4:50 4.5ft 8s 6s 13 18 mph 1021.2mb 75f 64f
3:50 5ft 10s 6s 11 16 mph 1021.6mb 75f 64f
2:50 5ft 8s 7s 13 16 mph 1021.9mb 75f 64f
1:50 5ft 9s 6s 9 13 mph 1022.2mb 75f 64f
12:50 5.5ft 10s 7s 11 16 mph 1022.8mb 75f 64f
11:50 5ft 10s 7s 11 18 mph 1023.3mb 75f 64f
10:50 6ft 10s 7s 13 16 mph 1024mb 75f 64f
9:50 6ft 10s 7s 13 18 mph 1024mb 75f 64f
8:50 6.5ft 10s 7s 11 18 mph 1024.3mb 75f 64f
7:50 6.5ft 9s 7s 13 20 mph 1024.1mb 75f 64f
6:50 6.5ft 9s 7s 16 22 mph 1023.4mb 76f 63f
5:50 7ft 8s 7s 13 18 mph 1023mb 76f 63f
4:50 7.5ft 9s 7s 16 22 mph 1022.7mb 76f 62f
3:50 6.5ft 9s 7s 18 22 mph 1022.8mb 76f 61f
2:50 7ft 9s 7s 18 25 mph 1022.8mb 76f 61f
1:50 7ft 8s 7s 18 25 mph 1023.5mb 76f 60f
12:50 6.5ft 9s 7s 25 29 mph 1023mb 76f 60f
lun 02/20 11:50 5.5ft 8s 6s 22 27 mph 1023.1mb 76f 60f
10:50 5ft 8s 6s 22 29 mph 1023mb 75f 60f
9:50 5ft 8s 6s 20 27 mph 1023.1mb 73f 60f
8:50 4.5ft 5s 5s 20 22 mph 1023.2mb 69f 59f
7:50 4ft 5s 5s 20 25 mph 1022.9mb 65f 59f
6:50 3.5ft 6s 4s 22 27 mph 1022.7mb 65f 59f
5:50 3.5ft 5s 4s 20 25 mph 1022.1mb 65f 58f
4:50 3.5ft 6s 4s 18 22 mph 1021.7mb 65f 60f
3:50 3.5ft 6s 4s 20 22 mph 1021.3mb 64f 59f
2:50 3.5ft 6s 4s 20 25 mph 1021.3mb 64f 60f
1:50 3.5ft 5s 4s 20 25 mph 1021mb 64f 59f
12:50 3.5ft 5s 4s 20 22 mph 1021.2mb 63f 58f
11:50 3ft 6s 4s 20 25 mph 1021.6mb 63f 57f
10:50 3ft 4s 4s 20 25 mph 1021.9mb 64f 57f
9:50 3ft 4s 4s 18 25 mph 1021.2mb 64f 59f
8:50 2.5ft 4s 4s 20 25 mph 1021.1mb 64f 60f
7:50 2ft 3s 3s 20 22 mph 1020.7mb 64f 61f
6:50 1.3ft 6s 4s 16 18 mph 1019.9mb 65f 62f
5:50 1.3ft 6s 4s 13
mph
1019.3mb 65f 62f
4:50 1.3ft 6s 4s 9
mph
1018.4mb 65f 63f
3:50 1.3ft 7s 4s 9 11 mph 1017.2mb 66f 63f
2:50 1.6ft 7s 5s 11
mph
1017.2mb 66f 63f
1:50 1.3ft 7s 5s 9 11 mph 1017.2mb 67f 64f
12:50 1.6ft 7s 5s 4 7 mph 1017.2mb 67f 64f
dom 02/19 11:50 1.3ft 7s 5s 7 9 mph 1017.3mb 67f 64f